createdAt,value
2019-05-19T00:00:13.185Z,98972.80
2019-05-19T00:00:49.586Z,98979.31
2019-05-19T00:01:26.064Z,98972.08
2019-05-19T00:02:02.739Z,98970.29
2019-05-19T00:02:40.815Z,98976.69
2019-05-19T00:03:17.520Z,98972.06
2019-05-19T00:03:54.118Z,98974.56
2019-05-19T00:04:30.750Z,98973.94
2019-05-19T00:05:07.632Z,98978.09
2019-05-19T00:05:44.289Z,98975.02
2019-05-19T00:06:19.735Z,98974.66
2019-05-19T00:06:56.660Z,98974.48
2019-05-19T00:07:33.889Z,98971.76
2019-05-19T00:08:10.264Z,98971.03
2019-05-19T00:08:46.300Z,98974.02
2019-05-19T00:09:22.609Z,98966.66
2019-05-19T00:09:59.209Z,98970.46
2019-05-19T00:10:35.540Z,98963.33
2019-05-19T00:11:11.553Z,98969.11
2019-05-19T00:11:47.049Z,98968.64
2019-05-19T00:12:23.142Z,98964.25
2019-05-19T00:13:00.075Z,98971.07
2019-05-19T00:13:36.246Z,98974.48
2019-05-19T00:14:12.825Z,98971.40
2019-05-19T00:14:49.405Z,98975.21
2019-05-19T00:15:24.849Z,98977.24
2019-05-19T00:16:01.230Z,98976.67
2019-05-19T00:16:37.255Z,98972.92
2019-05-19T00:17:12.753Z,98975.00
2019-05-19T00:17:48.730Z,98964.59
2019-05-19T00:18:25.025Z,98967.49
2019-05-19T00:19:00.579Z,98968.80
2019-05-19T00:19:37.207Z,98968.14
2019-05-19T00:20:14.069Z,98974.05
2019-05-19T00:20:50.713Z,98969.98
2019-05-19T00:21:27.363Z,98971.57
2019-05-19T00:22:04.692Z,98966.84
2019-05-19T00:22:40.253Z,98966.34
2019-05-19T00:23:16.964Z,98968.45
2019-05-19T00:23:53.326Z,98968.66
2019-05-19T00:24:28.984Z,98972.09
2019-05-19T00:25:06.577Z,98967.00
2019-05-19T00:25:43.147Z,98966.63
2019-05-19T00:26:18.993Z,98969.52
2019-05-19T00:26:55.184Z,98967.62
2019-05-19T00:27:32.257Z,98968.20
2019-05-19T00:28:07.762Z,98964.50
2019-05-19T00:28:43.773Z,98964.60
2019-05-19T00:29:19.785Z,98967.91
2019-05-19T00:29:55.384Z,98966.73
2019-05-19T00:30:31.568Z,98965.06
2019-05-19T00:31:08.198Z,98968.38
2019-05-19T00:31:43.756Z,98960.11
2019-05-19T00:32:20.376Z,98966.45
2019-05-19T00:32:56.917Z,98971.78
2019-05-19T00:33:32.817Z,98966.42
2019-05-19T00:34:10.035Z,98966.68
2019-05-19T00:34:46.971Z,98966.21
2019-05-19T00:35:22.787Z,98962.91
2019-05-19T00:35:59.365Z,98960.31
2019-05-19T00:36:35.486Z,98959.48
2019-05-19T00:37:11.929Z,98967.91
2019-05-19T00:37:47.950Z,98962.91
2019-05-19T00:38:24.650Z,98958.75
2019-05-19T00:39:00.211Z,98965.72
2019-05-19T00:39:36.284Z,98964.34
2019-05-19T00:40:13.057Z,98962.55
2019-05-19T00:40:49.467Z,98959.06
2019-05-19T00:41:25.571Z,98963.44
2019-05-19T00:42:02.571Z,98960.31
2019-05-19T00:42:38.902Z,98956.85
2019-05-19T00:43:14.880Z,98956.85
2019-05-19T00:43:51.563Z,98956.59
2019-05-19T00:44:27.058Z,98958.36
2019-05-19T00:45:04.167Z,98961.66
2019-05-19T00:45:41.298Z,98957.86
2019-05-19T00:46:17.327Z,98954.89
2019-05-19T00:46:53.318Z,98953.52
2019-05-19T00:47:29.781Z,98951.86
2019-05-19T00:48:06.074Z,98951.28
2019-05-19T00:48:42.883Z,98947.19
2019-05-19T00:49:19.194Z,98940.69
2019-05-19T00:49:55.597Z,98944.34
2019-05-19T00:50:31.652Z,98944.11
2019-05-19T00:51:08.254Z,98936.42
2019-05-19T00:51:45.196Z,98940.69
2019-05-19T00:52:21.812Z,98946.25
2019-05-19T00:52:59.137Z,98938.55
2019-05-19T00:53:35.042Z,98945.98
2019-05-19T00:54:11.590Z,98953.88
2019-05-19T00:54:47.689Z,98940.16
2019-05-19T00:55:23.751Z,98936.89
2019-05-19T00:56:02.822Z,98934.39
2019-05-19T00:56:39.842Z,98934.63
2019-05-19T00:57:16.026Z,98937.25
2019-05-19T00:57:52.732Z,98935.12
2019-05-19T00:58:30.022Z,98936.05
2019-05-19T00:59:07.076Z,98936.26
2019-05-19T00:59:44.797Z,98937.45
2019-05-19T01:00:22.637Z,98942.55
2019-05-19T01:00:58.398Z,98940.78
2019-05-19T01:01:35.085Z,98938.66
2019-05-19T01:02:12.529Z,98937.82
2019-05-19T01:02:48.974Z,98938.28
2019-05-19T01:03:25.855Z,98940.89
2019-05-19T01:04:01.905Z,98932.72
2019-05-19T01:04:37.941Z,98938.66
2019-05-19T01:05:14.630Z,98936.05
2019-05-19T01:05:51.591Z,98943.13
2019-05-19T01:06:27.723Z,98935.69
2019-05-19T01:07:03.822Z,98935.12
2019-05-19T01:07:39.837Z,98932.17
2019-05-19T01:08:15.874Z,98933.81
2019-05-19T01:08:52.316Z,98933.64
2019-05-19T01:09:29.470Z,98930.41
2019-05-19T01:10:06.933Z,98928.52
2019-05-19T01:10:43.319Z,98928.36
2019-05-19T01:11:19.360Z,98922.56
2019-05-19T01:11:55.762Z,98927.76
2019-05-19T01:12:32.418Z,98923.50
2019-05-19T01:13:09.283Z,98928.95
2019-05-19T01:13:44.825Z,98925.66
2019-05-19T01:14:21.846Z,98920.66
2019-05-19T01:14:58.187Z,98923.39
2019-05-19T01:15:33.702Z,98916.63
2019-05-19T01:16:10.303Z,98922.56
2019-05-19T01:16:46.357Z,98920.80
2019-05-19T01:17:22.980Z,98916.89
2019-05-19T01:17:59.234Z,98912.00
2019-05-19T01:18:35.249Z,98916.00
2019-05-19T01:19:11.127Z,98909.41
2019-05-19T01:19:55.621Z,98918.03
2019-05-19T01:20:26.668Z,98917.80
2019-05-19T01:21:03.138Z,98913.28
2019-05-19T01:21:40.361Z,98908.18
2019-05-19T01:22:17.423Z,98912.34
2019-05-19T01:22:52.906Z,98913.07
2019-05-19T01:23:29.209Z,98907.27
2019-05-19T01:24:05.319Z,98910.01
2019-05-19T01:24:41.202Z,98907.17
2019-05-19T01:25:17.998Z,98904.10
2019-05-19T01:25:54.935Z,98903.27
2019-05-19T01:26:30.444Z,98902.80
2019-05-19T01:27:06.867Z,98902.31
2019-05-19T01:27:43.504Z,98899.84
2019-05-19T01:28:18.966Z,98903.51
2019-05-19T01:28:55.539Z,98898.88
2019-05-19T01:29:32.565Z,98901.48
2019-05-19T01:30:10.567Z,98898.16
2019-05-19T01:30:47.431Z,98898.88
2019-05-19T01:31:23.542Z,98894.64
2019-05-19T01:32:00.320Z,98898.54
2019-05-19T01:32:36.448Z,98896.20
2019-05-19T01:33:12.499Z,98903.17
2019-05-19T01:33:48.552Z,98901.87
2019-05-19T01:34:25.338Z,98902.34
2019-05-19T01:35:01.521Z,98899.94
2019-05-19T01:35:37.007Z,98897.81
2019-05-19T01:36:13.657Z,98904.57
2019-05-19T01:36:49.656Z,98897.11
2019-05-19T01:37:25.886Z,98900.31
2019-05-19T01:38:02.087Z,98902.08
2019-05-19T01:38:38.095Z,98902.44
2019-05-19T01:39:14.139Z,98903.63
2019-05-19T01:39:51.071Z,98904.59
2019-05-19T01:40:27.131Z,98907.56
2019-05-19T01:41:03.065Z,98909.48
2019-05-19T01:41:39.069Z,98903.43
2019-05-19T01:42:15.723Z,98906.50
2019-05-19T01:42:52.458Z,98901.77
2019-05-19T01:43:29.304Z,98897.70
2019-05-19T01:44:06.056Z,98903.98
2019-05-19T01:44:41.498Z,98901.69
2019-05-19T01:45:18.984Z,98898.35
2019-05-19T01:45:55.630Z,98895.52
2019-05-19T01:46:31.185Z,98894.53
2019-05-19T01:47:07.263Z,98896.06
2019-05-19T01:47:43.299Z,98894.14
2019-05-19T01:48:19.365Z,98902.50
2019-05-19T01:48:56.082Z,98911.36
2019-05-19T01:49:32.353Z,98908.86
2019-05-19T01:50:18.461Z,98908.66
2019-05-19T01:50:47.921Z,98912.77
2019-05-19T01:51:24.496Z,98912.69
2019-05-19T01:52:01.018Z,98907.33
2019-05-19T01:52:39.043Z,98903.52
2019-05-19T01:53:15.621Z,98906.20
2019-05-19T01:53:51.083Z,98906.95
2019-05-19T01:54:27.268Z,98907.39
2019-05-19T01:55:03.934Z,98904.46
2019-05-19T01:55:40.607Z,98899.34
2019-05-19T01:56:17.183Z,98902.46
2019-05-19T01:56:53.639Z,98897.59
2019-05-19T01:57:29.724Z,98899.99
2019-05-19T01:58:05.890Z,98897.20
2019-05-19T01:58:42.970Z,98896.45
2019-05-19T01:59:19.008Z,98891.07
2019-05-19T01:59:55.612Z,98892.81
2019-05-19T02:00:32.339Z,98900.31
2019-05-19T02:01:08.415Z,98896.02
2019-05-19T02:01:45.164Z,98893.25
2019-05-19T02:02:21.738Z,98895.14
2019-05-19T02:02:58.465Z,98890.98
2019-05-19T02:03:35.122Z,98895.61
2019-05-19T02:04:12.165Z,98895.28
2019-05-19T02:04:48.569Z,98896.58
2019-05-19T02:05:25.483Z,98900.17
2019-05-19T02:06:02.544Z,98898.84
2019-05-19T02:06:38.573Z,98896.77
2019-05-19T02:07:15.163Z,98892.88
2019-05-19T02:07:51.259Z,98891.67
2019-05-19T02:08:28.006Z,98894.83
2019-05-19T02:09:05.873Z,98894.91
2019-05-19T02:09:42.598Z,98888.61
2019-05-19T02:10:20.042Z,98899.59
2019-05-19T02:10:56.443Z,98898.10
2019-05-19T02:11:33.112Z,98890.88
2019-05-19T02:12:09.269Z,98893.64
2019-05-19T02:12:46.644Z,98901.94
2019-05-19T02:13:23.247Z,98895.44
2019-05-19T02:14:00.027Z,98893.28
2019-05-19T02:14:36.817Z,98897.91
2019-05-19T02:15:13.245Z,98901.90
2019-05-19T02:15:48.983Z,98901.90
2019-05-19T02:16:25.570Z,98900.73
2019-05-19T02:17:02.317Z,98904.77
2019-05-19T02:17:38.110Z,98900.13
2019-05-19T02:18:15.381Z,98901.47
2019-05-19T02:18:52.251Z,98896.14
2019-05-19T02:19:28.342Z,98900.64
2019-05-19T02:20:04.448Z,98897.11
2019-05-19T02:20:41.110Z,98901.00
2019-05-19T02:21:17.493Z,98900.64
2019-05-19T02:21:53.835Z,98897.11
2019-05-19T02:22:30.455Z,98899.34
2019-05-19T02:23:07.030Z,98900.73
2019-05-19T02:23:44.034Z,98904.30
2019-05-19T02:24:20.144Z,98898.00
2019-05-19T02:24:56.003Z,98902.83
2019-05-19T02:25:32.074Z,98907.09
2019-05-19T02:26:08.588Z,98904.30
2019-05-19T02:26:44.632Z,98904.50
2019-05-19T02:27:20.641Z,98903.66
2019-05-19T02:27:57.149Z,98902.27
2019-05-19T02:28:33.446Z,98898.84
2019-05-19T02:29:10.466Z,98899.77
2019-05-19T02:29:47.119Z,98898.47
2019-05-19T02:30:23.881Z,98900.97
2019-05-19T02:31:00.128Z,98905.42
2019-05-19T02:31:36.787Z,98900.70
2019-05-19T02:32:12.882Z,98902.00
2019-05-19T02:32:49.259Z,98905.06
2019-05-19T02:33:26.032Z,98908.86
2019-05-19T02:34:01.635Z,98906.36
2019-05-19T02:34:38.017Z,98904.23
2019-05-19T02:35:15.192Z,98907.09
2019-05-19T02:35:50.666Z,98908.39
2019-05-19T02:36:26.718Z,98907.46
2019-05-19T02:37:03.482Z,98909.49
2019-05-19T02:37:39.621Z,98904.86
2019-05-19T02:38:16.854Z,98913.89
2019-05-19T02:38:52.899Z,98908.63
2019-05-19T02:39:28.531Z,98906.00
2019-05-19T02:40:05.966Z,98901.94
2019-05-19T02:40:44.172Z,98908.33
2019-05-19T02:41:22.975Z,98911.59
2019-05-19T02:42:01.670Z,98909.73
2019-05-19T02:42:42.637Z,98906.93
2019-05-19T02:43:20.408Z,98902.63
2019-05-19T02:43:59.139Z,98910.16
2019-05-19T02:44:37.151Z,98912.95
2019-05-19T02:45:13.316Z,98911.19
2019-05-19T02:45:52.988Z,98914.71
2019-05-19T02:46:32.120Z,98911.19
2019-05-19T02:47:10.026Z,98911.65
2019-05-19T02:47:47.462Z,98912.48
2019-05-19T02:48:26.652Z,98910.22
2019-05-19T02:49:03.717Z,98906.83
2019-05-19T02:49:41.631Z,98912.34
2019-05-19T02:50:18.533Z,98915.31
2019-05-19T02:50:56.771Z,98917.17
2019-05-19T02:51:35.933Z,98921.44
2019-05-19T02:52:13.673Z,98920.14
2019-05-19T02:52:51.171Z,98919.57
2019-05-19T02:53:28.169Z,98912.17
2019-05-19T02:54:06.833Z,98919.96
2019-05-19T02:54:43.944Z,98922.09
2019-05-19T02:55:21.107Z,98917.00
2019-05-19T02:55:59.312Z,98920.56
2019-05-19T02:56:36.319Z,98918.06
2019-05-19T02:57:13.686Z,98917.50
2019-05-19T02:57:53.411Z,98926.22
2019-05-19T02:58:29.400Z,98923.34
2019-05-19T02:59:05.756Z,98923.56
2019-05-19T02:59:42.465Z,98925.33
2019-05-19T03:00:18.233Z,98922.19
2019-05-19T03:00:54.398Z,98926.09
2019-05-19T03:01:31.676Z,98925.38
2019-05-19T03:02:11.111Z,98934.37
2019-05-19T03:02:47.569Z,98931.28
2019-05-19T03:03:24.196Z,98921.63
2019-05-19T03:04:00.807Z,98927.46
2019-05-19T03:04:37.415Z,98928.73
2019-05-19T03:05:14.636Z,98930.66
2019-05-19T03:05:50.111Z,98931.91
2019-05-19T03:06:26.137Z,98931.64
2019-05-19T03:07:03.252Z,98935.67
2019-05-19T03:07:39.313Z,98935.87
2019-05-19T03:08:15.949Z,98931.80
2019-05-19T03:08:52.297Z,98935.59
2019-05-19T03:09:28.223Z,98938.29
2019-05-19T03:10:04.656Z,98934.89
2019-05-19T03:10:41.277Z,98937.22
2019-05-19T03:11:17.382Z,98938.52
2019-05-19T03:11:53.404Z,98938.88
2019-05-19T03:12:29.479Z,98934.05
2019-05-19T03:13:04.997Z,98931.19
2019-05-19T03:13:41.048Z,98929.57
2019-05-19T03:14:17.658Z,98933.73
2019-05-19T03:14:53.137Z,98934.56
2019-05-19T03:15:29.476Z,98933.00
2019-05-19T03:16:06.493Z,98938.19
2019-05-19T03:16:41.955Z,98937.36
2019-05-19T03:17:18.563Z,98932.76
2019-05-19T03:17:54.972Z,98930.33
2019-05-19T03:18:30.606Z,98932.41
2019-05-19T03:19:07.316Z,98928.34
2019-05-19T03:19:43.936Z,98934.92
2019-05-19T03:20:19.388Z,98931.30
2019-05-19T03:21:09.849Z,98928.44
2019-05-19T03:21:33.772Z,98927.27
2019-05-19T03:22:09.268Z,98930.30
2019-05-19T03:22:45.749Z,98930.58
2019-05-19T03:23:22.242Z,98933.83
2019-05-19T03:23:58.464Z,98926.51
2019-05-19T03:24:34.817Z,98927.34
2019-05-19T03:25:10.945Z,98930.30
2019-05-19T03:25:47.370Z,98925.58
2019-05-19T03:26:23.369Z,98927.24
2019-05-19T03:27:00.659Z,98925.06
2019-05-19T03:27:37.411Z,98930.81
2019-05-19T03:28:14.018Z,98926.78
2019-05-19T03:28:50.673Z,98925.84
2019-05-19T03:29:31.057Z,98927.71
2019-05-19T03:30:26.045Z,98930.30
2019-05-19T03:31:32.633Z,98928.91
2019-05-19T03:32:30.771Z,98920.95
2019-05-19T03:33:07.135Z,98928.81
2019-05-19T03:33:46.383Z,98927.66
2019-05-19T03:34:22.528Z,98923.86
2019-05-19T03:34:59.206Z,98931.41
2019-05-19T03:35:35.362Z,98923.86
2019-05-19T03:36:11.543Z,98922.56
2019-05-19T03:36:46.971Z,98917.50
2019-05-19T03:37:23.043Z,98924.07
2019-05-19T03:37:59.881Z,98925.09
2019-05-19T03:38:35.969Z,98919.57
2019-05-19T03:39:12.051Z,98923.56
2019-05-19T03:39:49.069Z,98918.56
2019-05-19T03:40:25.145Z,98922.92
2019-05-19T03:41:01.806Z,98927.14
2019-05-19T03:41:38.783Z,98924.97
2019-05-19T03:42:14.273Z,98922.17
2019-05-19T03:42:51.916Z,98924.70
2019-05-19T03:43:28.588Z,98927.91
2019-05-19T03:44:04.972Z,98922.01
2019-05-19T03:44:41.925Z,98916.30
2019-05-19T03:45:17.944Z,98923.66
2019-05-19T03:45:53.436Z,98927.92
2019-05-19T03:46:30.081Z,98931.36
2019-05-19T03:47:06.139Z,98924.13
2019-05-19T03:47:42.009Z,98920.23
2019-05-19T03:48:18.040Z,98921.53
2019-05-19T03:48:54.985Z,98929.05
2019-05-19T03:49:30.556Z,98934.00
2019-05-19T03:50:07.325Z,98927.88
2019-05-19T03:50:43.331Z,98928.39
2019-05-19T03:51:30.365Z,98930.62
2019-05-19T03:51:57.207Z,98924.49
2019-05-19T03:52:33.844Z,98926.06
2019-05-19T03:53:09.893Z,98927.83
2019-05-19T03:53:46.865Z,98928.95
2019-05-19T03:54:23.288Z,98927.75
2019-05-19T03:54:59.550Z,98928.34
2019-05-19T03:55:35.615Z,98927.98
2019-05-19T03:56:12.319Z,98926.87
2019-05-19T03:56:48.929Z,98930.16
2019-05-19T03:57:24.965Z,98925.80
2019-05-19T03:58:01.851Z,98927.81
2019-05-19T03:58:37.305Z,98925.80
2019-05-19T03:59:13.918Z,98933.83
2019-05-19T03:59:49.989Z,98929.47
2019-05-19T04:00:26.361Z,98927.34
2019-05-19T04:01:03.015Z,98938.29
2019-05-19T04:01:39.088Z,98929.03
2019-05-19T04:02:14.534Z,98931.97
2019-05-19T04:02:50.564Z,98925.84
2019-05-19T04:03:26.662Z,98930.30
2019-05-19T04:04:02.579Z,98935.40
2019-05-19T04:04:40.035Z,98934.20
2019-05-19T04:05:16.765Z,98934.30
2019-05-19T04:05:52.215Z,98937.36
2019-05-19T04:06:29.069Z,98930.41
2019-05-19T04:07:05.158Z,98932.91
2019-05-19T04:07:40.701Z,98929.84
2019-05-19T04:08:17.081Z,98931.51
2019-05-19T04:08:53.418Z,98937.62
2019-05-19T04:09:28.927Z,98933.64
2019-05-19T04:10:06.475Z,98942.36
2019-05-19T04:10:43.067Z,98937.16
2019-05-19T04:11:19.530Z,98936.70
2019-05-19T04:11:57.324Z,98936.06
2019-05-19T04:12:34.371Z,98943.02
2019-05-19T04:13:10.515Z,98939.59
2019-05-19T04:13:46.502Z,98940.79
2019-05-19T04:14:22.505Z,98939.91
2019-05-19T04:14:58.660Z,98936.28
2019-05-19T04:15:35.320Z,98936.45
2019-05-19T04:16:11.320Z,98938.55
2019-05-19T04:16:50.188Z,98937.23
2019-05-19T04:17:26.910Z,98942.29
2019-05-19T04:18:03.538Z,98940.59
2019-05-19T04:18:39.584Z,98947.40
2019-05-19T04:19:16.198Z,98945.20
2019-05-19T04:19:52.249Z,98943.54
2019-05-19T04:20:28.379Z,98949.16
2019-05-19T04:21:04.620Z,98946.20
2019-05-19T04:21:48.927Z,98945.73
2019-05-19T04:22:18.951Z,98949.86
2019-05-19T04:22:55.620Z,98953.30
2019-05-19T04:23:31.671Z,98954.83
2019-05-19T04:24:07.723Z,98951.16
2019-05-19T04:24:46.236Z,98953.39
2019-05-19T04:25:22.952Z,98953.56
2019-05-19T04:26:00.689Z,98951.89
2019-05-19T04:26:37.304Z,98947.27
2019-05-19T04:27:13.335Z,98949.22
2019-05-19T04:27:49.743Z,98957.95
2019-05-19T04:28:25.785Z,98959.07
2019-05-19T04:29:02.471Z,98954.66
2019-05-19T04:29:39.617Z,98948.33
2019-05-19T04:30:16.286Z,98951.89
2019-05-19T04:30:52.254Z,98955.47
2019-05-19T04:31:28.324Z,98953.36
2019-05-19T04:32:05.329Z,98958.49
2019-05-19T04:32:42.367Z,98953.20
2019-05-19T04:33:18.425Z,98951.06
2019-05-19T04:33:54.446Z,98955.00
2019-05-19T04:34:31.261Z,98952.86
2019-05-19T04:35:08.638Z,98954.30
2019-05-19T04:35:45.578Z,98952.83
2019-05-19T04:36:22.556Z,98952.59
2019-05-19T04:36:59.225Z,98954.45
2019-05-19T04:37:35.332Z,98956.83
2019-05-19T04:38:11.334Z,98959.25
2019-05-19T04:38:47.505Z,98954.40
2019-05-19T04:39:23.516Z,98956.39
2019-05-19T04:40:00.044Z,98959.74
2019-05-19T04:40:35.541Z,98956.59
2019-05-19T04:41:12.007Z,98956.22
2019-05-19T04:41:48.029Z,98957.10
2019-05-19T04:42:23.492Z,98955.90
2019-05-19T04:42:59.575Z,98955.85
2019-05-19T04:43:36.259Z,98955.75
2019-05-19T04:44:11.719Z,98955.75
2019-05-19T04:44:48.046Z,98959.05
2019-05-19T04:45:24.039Z,98954.62
2019-05-19T04:46:00.477Z,98955.39
2019-05-19T04:46:37.437Z,98959.42
2019-05-19T04:47:14.066Z,98955.39
2019-05-19T04:47:49.518Z,98967.07
2019-05-19T04:48:26.222Z,98962.61
2019-05-19T04:49:02.427Z,98964.94
2019-05-19T04:49:37.877Z,98962.48
2019-05-19T04:50:14.235Z,98966.60
2019-05-19T04:50:50.772Z,98965.93
2019-05-19T04:51:26.399Z,98967.79
2019-05-19T04:52:06.898Z,98973.25
2019-05-19T04:52:40.235Z,98975.38
2019-05-19T04:53:15.795Z,98965.75
2019-05-19T04:53:51.822Z,98966.25
2019-05-19T04:54:28.644Z,98975.02
2019-05-19T04:55:04.217Z,98970.66
2019-05-19T04:55:40.233Z,98971.13
2019-05-19T04:56:19.524Z,98971.95
2019-05-19T04:56:54.050Z,98974.30
2019-05-19T04:57:31.352Z,98975.18
2019-05-19T04:58:07.974Z,98964.25
2019-05-19T04:58:44.396Z,98969.71
2019-05-19T04:59:21.302Z,98967.68
2019-05-19T04:59:57.656Z,98977.59
2019-05-19T05:00:33.653Z,98971.33
2019-05-19T05:01:09.684Z,98963.08
2019-05-19T05:01:45.725Z,98968.41
2019-05-19T05:02:21.173Z,98969.00
2019-05-19T05:02:57.656Z,98969.89
2019-05-19T05:03:34.321Z,98966.78
2019-05-19T05:04:10.375Z,98976.01
2019-05-19T05:04:46.424Z,98973.73
2019-05-19T05:05:22.514Z,98970.77
2019-05-19T05:05:58.180Z,98970.86
2019-05-19T05:06:34.839Z,98975.50
2019-05-19T05:07:11.447Z,98973.73
2019-05-19T05:07:47.879Z,98970.30
2019-05-19T05:08:30.303Z,98976.06
2019-05-19T05:09:04.036Z,98969.66
2019-05-19T05:09:39.472Z,98966.63
2019-05-19T05:10:16.026Z,98969.38
2019-05-19T05:10:52.054Z,98967.70
2019-05-19T05:11:28.346Z,98966.92
2019-05-19T05:12:05.272Z,98966.48
2019-05-19T05:12:41.631Z,98957.91
2019-05-19T05:13:18.001Z,98968.89
2019-05-19T05:13:54.026Z,98970.84
2019-05-19T05:14:30.804Z,98966.95
2019-05-19T05:15:06.501Z,98962.69
2019-05-19T05:15:42.525Z,98969.08
2019-05-19T05:16:18.539Z,98966.53
2019-05-19T05:16:55.049Z,98966.09
2019-05-19T05:17:31.570Z,98966.25
2019-05-19T05:18:09.116Z,98962.02
2019-05-19T05:18:47.840Z,98959.34
2019-05-19T05:19:22.918Z,98962.11
2019-05-19T05:19:59.503Z,98960.72
2019-05-19T05:20:36.030Z,98963.09
2019-05-19T05:21:12.120Z,98962.54
2019-05-19T05:21:48.632Z,98964.39
2019-05-19T05:22:24.039Z,98960.59
2019-05-19T05:23:01.097Z,98966.25
2019-05-19T05:23:38.079Z,98961.43
2019-05-19T05:24:13.832Z,98964.13
2019-05-19T05:24:50.463Z,98956.88
2019-05-19T05:25:26.625Z,98960.45
2019-05-19T05:26:02.152Z,98958.97
2019-05-19T05:26:38.788Z,98960.78
2019-05-19T05:27:14.777Z,98959.20
2019-05-19T05:27:50.232Z,98958.98
2019-05-19T05:28:27.117Z,98958.52
2019-05-19T05:29:03.822Z,98960.95
2019-05-19T05:29:39.967Z,98962.86
2019-05-19T05:30:16.925Z,98959.50
2019-05-19T05:30:54.178Z,98966.78
2019-05-19T05:31:30.098Z,98963.13
2019-05-19T05:32:06.207Z,98964.69
2019-05-19T05:32:42.613Z,98964.73
2019-05-19T05:33:18.754Z,98964.73
2019-05-19T05:33:54.874Z,98965.47
2019-05-19T05:34:31.081Z,98959.84
2019-05-19T05:35:07.824Z,98967.64
2019-05-19T05:35:44.506Z,98963.64
2019-05-19T05:36:20.531Z,98960.68
2019-05-19T05:36:56.641Z,98966.14
2019-05-19T05:37:33.257Z,98966.14
2019-05-19T05:38:10.005Z,98962.86
2019-05-19T05:38:46.371Z,98962.09
2019-05-19T05:39:22.445Z,98963.39
2019-05-19T05:39:59.498Z,98963.89
2019-05-19T05:40:35.086Z,98961.19
2019-05-19T05:41:12.069Z,98960.92
2019-05-19T05:41:48.784Z,98961.03
2019-05-19T05:42:25.441Z,98960.73
2019-05-19T05:43:02.324Z,98962.63
2019-05-19T05:43:38.356Z,98959.73
2019-05-19T05:44:14.668Z,98962.30
2019-05-19T05:44:51.366Z,98963.50
2019-05-19T05:45:28.967Z,98964.06
2019-05-19T05:46:04.886Z,98960.09
2019-05-19T05:46:40.947Z,98963.30
2019-05-19T05:47:17.896Z,98959.30
2019-05-19T05:47:53.350Z,98965.66
2019-05-19T05:48:29.703Z,98960.83
2019-05-19T05:49:06.373Z,98958.73
2019-05-19T05:49:42.987Z,98962.43
2019-05-19T05:50:19.578Z,98964.77
2019-05-19T05:50:56.046Z,98961.70
2019-05-19T05:51:32.189Z,98960.82
2019-05-19T05:52:08.334Z,98958.66
2019-05-19T05:52:44.686Z,98966.09
2019-05-19T05:53:21.043Z,98960.39
2019-05-19T05:53:58.287Z,98964.77
2019-05-19T05:54:35.588Z,98966.36
2019-05-19T05:55:11.138Z,98965.77
2019-05-19T05:55:47.191Z,98965.63
2019-05-19T05:56:23.842Z,98963.03
2019-05-19T05:56:59.160Z,98966.06
2019-05-19T05:57:35.206Z,98963.63
2019-05-19T05:58:11.624Z,98958.16
2019-05-19T05:58:48.068Z,98966.06
2019-05-19T05:59:24.611Z,98971.69
2019-05-19T06:00:01.301Z,98962.27
2019-05-19T06:00:37.393Z,98966.69
2019-05-19T06:01:13.771Z,98961.70
2019-05-19T06:01:49.768Z,98955.81
2019-05-19T06:02:25.272Z,98956.86
2019-05-19T06:03:01.410Z,98952.61
2019-05-19T06:03:38.000Z,98955.32
2019-05-19T06:04:13.553Z,98952.23
2019-05-19T06:04:49.555Z,98944.63
2019-05-19T06:05:25.905Z,98950.52
2019-05-19T06:06:02.366Z,98942.81
2019-05-19T06:06:38.953Z,98944.27
2019-05-19T06:07:15.603Z,98941.67
2019-05-19T06:07:51.999Z,98939.80
2019-05-19T06:08:28.078Z,98943.70
2019-05-19T06:09:06.449Z,98949.60
2019-05-19T06:09:42.650Z,98943.41
2019-05-19T06:10:18.659Z,98946.17
2019-05-19T06:10:55.833Z,98947.13
2019-05-19T06:11:32.204Z,98949.47
2019-05-19T06:12:09.083Z,98951.47
2019-05-19T06:12:45.453Z,98951.65
2019-05-19T06:13:20.894Z,98955.05
2019-05-19T06:13:57.643Z,98956.09
2019-05-19T06:14:33.755Z,98958.80
2019-05-19T06:15:10.241Z,98952.83
2019-05-19T06:15:47.241Z,98952.34
2019-05-19T06:16:24.396Z,98956.23
2019-05-19T06:17:00.287Z,98954.70
2019-05-19T06:17:36.934Z,98957.66
2019-05-19T06:18:13.296Z,98954.59
2019-05-19T06:18:49.739Z,98951.30
2019-05-19T06:19:26.708Z,98952.27
2019-05-19T06:20:03.590Z,98950.25
2019-05-19T06:20:39.440Z,98948.69
2019-05-19T06:21:15.659Z,98947.39
2019-05-19T06:21:52.637Z,98950.02
2019-05-19T06:22:28.817Z,98948.12
2019-05-19T06:23:05.698Z,98952.98
2019-05-19T06:23:42.874Z,98951.47
2019-05-19T06:24:18.915Z,98951.78
2019-05-19T06:24:58.852Z,98948.27
2019-05-19T06:25:34.448Z,98949.48
2019-05-19T06:26:11.080Z,98955.45
2019-05-19T06:26:47.969Z,98948.93
2019-05-19T06:27:24.662Z,98945.69
2019-05-19T06:28:00.784Z,98951.50
2019-05-19T06:28:37.128Z,98952.82
2019-05-19T06:29:13.125Z,98951.32
2019-05-19T06:29:48.585Z,98955.42
2019-05-19T06:30:24.637Z,98955.36
2019-05-19T06:31:01.067Z,98954.61
2019-05-19T06:31:36.670Z,98956.02
2019-05-19T06:32:33.930Z,98960.39
2019-05-19T06:33:10.662Z,98957.47
2019-05-19T06:33:46.121Z,98961.74
2019-05-19T06:34:22.728Z,98958.88
2019-05-19T06:34:59.155Z,98959.39
2019-05-19T06:35:35.238Z,98950.86
2019-05-19T06:36:12.079Z,98958.01
2019-05-19T06:36:49.011Z,98959.36
2019-05-19T06:37:25.198Z,98959.69
2019-05-19T06:38:02.909Z,98960.39
2019-05-19T06:38:39.215Z,98964.25
2019-05-19T06:39:14.982Z,98962.78
2019-05-19T06:39:51.698Z,98959.97
2019-05-19T06:40:27.796Z,98960.81
2019-05-19T06:41:03.938Z,98957.87
2019-05-19T06:41:40.958Z,98960.73
2019-05-19T06:42:17.551Z,98962.78
2019-05-19T06:42:53.342Z,98960.70
2019-05-19T06:43:30.616Z,98960.26
2019-05-19T06:44:07.214Z,98962.02
2019-05-19T06:44:42.725Z,98964.97
2019-05-19T06:45:18.742Z,98962.69
2019-05-19T06:45:54.830Z,98966.38
2019-05-19T06:46:31.444Z,98963.14
2019-05-19T06:47:08.888Z,98965.09
2019-05-19T06:47:45.247Z,98961.71
2019-05-19T06:48:20.718Z,98961.97
2019-05-19T06:48:56.970Z,98960.67
2019-05-19T06:49:33.047Z,98962.87
2019-05-19T06:50:10.169Z,98957.69
2019-05-19T06:50:46.787Z,98958.73
2019-05-19T06:51:23.571Z,98959.94
2019-05-19T06:51:59.434Z,98954.84
2019-05-19T06:52:37.450Z,98965.73
2019-05-19T06:53:14.829Z,98965.04
2019-05-19T06:53:50.489Z,98957.81
2019-05-19T06:54:27.593Z,98957.44
2019-05-19T06:55:04.295Z,98958.40
2019-05-19T06:55:40.113Z,98958.13
2019-05-19T06:56:17.127Z,98960.59
2019-05-19T06:56:53.507Z,98957.86
2019-05-19T06:57:30.616Z,98956.22
2019-05-19T06:58:06.624Z,98956.62
2019-05-19T06:58:43.974Z,98958.63
2019-05-19T06:59:20.110Z,98957.09
2019-05-19T06:59:56.759Z,98956.14
2019-05-19T07:00:33.852Z,98950.45
2019-05-19T07:01:09.931Z,98949.13
2019-05-19T07:01:46.934Z,98958.00
2019-05-19T07:02:23.700Z,98953.61
2019-05-19T07:02:59.898Z,98956.96
2019-05-19T07:03:36.935Z,98951.25
2019-05-19T07:04:13.908Z,98956.84
2019-05-19T07:04:49.967Z,98960.98
2019-05-19T07:05:26.743Z,98960.05
2019-05-19T07:06:03.578Z,98958.84
2019-05-19T07:06:40.109Z,98959.75
2019-05-19T07:07:16.712Z,98961.62
2019-05-19T07:07:53.361Z,98956.47
2019-05-19T07:08:29.569Z,98957.19
2019-05-19T07:09:08.412Z,98956.64
2019-05-19T07:09:57.446Z,98953.88
2019-05-19T07:10:23.828Z,98954.39